createdAt,value
2018-10-19T00:00:01.571Z,8.76
2018-10-19T00:05:01.872Z,8.66
2018-10-19T00:10:01.347Z,8.6
2018-10-19T00:15:01.714Z,8.6
2018-10-19T00:20:01.244Z,8.56
2018-10-19T00:25:01.516Z,8.51
2018-10-19T00:30:01.792Z,8.55
2018-10-19T00:35:01.372Z,8.62
2018-10-19T00:40:01.840Z,8.68
2018-10-19T00:45:01.265Z,8.55
2018-10-19T00:50:01.944Z,8.49
2018-10-19T00:55:01.398Z,8.47
2018-10-19T01:00:01.705Z,8.57
2018-10-19T01:05:02.109Z,8.52
2018-10-19T01:10:01.916Z,8.33
2018-10-19T01:15:01.251Z,8.12
2018-10-19T01:20:01.840Z,8.09
2018-10-19T01:25:01.132Z,8.08
2018-10-19T01:30:01.448Z,8.22
2018-10-19T01:35:01.793Z,8.29
2018-10-19T01:40:01.257Z,8.15
2018-10-19T01:45:01.538Z,8.02
2018-10-19T01:50:02.046Z,7.99
2018-10-19T01:55:01.279Z,7.9
2018-10-19T02:00:01.553Z,7.92
2018-10-19T02:05:01.939Z,8.04
2018-10-19T02:10:01.454Z,8.09
2018-10-19T02:15:01.762Z,8.14
2018-10-19T02:20:01.332Z,8.23
2018-10-19T02:25:01.689Z,8.37
2018-10-19T02:30:01.959Z,8.59
2018-10-19T02:35:01.308Z,8.55
2018-10-19T02:40:01.155Z,8.48
2018-10-19T02:45:01.487Z,8.46
2018-10-19T02:50:01.812Z,8.47
2018-10-19T02:55:02.035Z,8.46
2018-10-19T03:00:01.299Z,8.39
2018-10-19T03:05:01.650Z,8.51
2018-10-19T03:10:01.993Z,8.41
2018-10-19T03:15:01.408Z,8.34
2018-10-19T03:20:01.829Z,8.26
2018-10-19T03:25:02.120Z,8.09
2018-10-19T03:30:01.388Z,7.98
2018-10-19T03:35:01.663Z,7.91
2018-10-19T03:40:02.011Z,7.91
2018-10-19T03:45:01.374Z,7.83
2018-10-19T03:50:01.939Z,7.72
2018-10-19T03:55:01.236Z,7.71
2018-10-19T04:00:01.510Z,7.65
2018-10-19T04:05:01.809Z,7.59
2018-10-19T04:10:01.504Z,7.53
2018-10-19T04:15:01.821Z,7.47
2018-10-19T04:20:01.207Z,7.39
2018-10-19T04:25:01.521Z,7.38
2018-10-19T04:30:01.750Z,7.38
2018-10-19T04:35:02.106Z,7.35
2018-10-19T04:40:02.004Z,7.37
2018-10-19T04:45:01.356Z,7.58
2018-10-19T04:50:01.882Z,7.52
2018-10-19T04:55:01.118Z,7.6
2018-10-19T05:00:01.429Z,7.85
2018-10-19T05:05:01.836Z,7.89
2018-10-19T05:10:01.146Z,8
2018-10-19T05:15:01.379Z,7.87
2018-10-19T05:20:01.788Z,7.88
2018-10-19T05:25:01.307Z,8.03
2018-10-19T05:30:01.578Z,8.04
2018-10-19T05:35:01.951Z,8.03
2018-10-19T05:40:01.437Z,8.08
2018-10-19T05:45:01.718Z,7.97
2018-10-19T05:50:02.089Z,8
2018-10-19T05:55:01.540Z,8.04
2018-10-19T06:00:01.813Z,8.02
2018-10-19T06:05:02.142Z,8.07
2018-10-19T06:10:01.670Z,8.14
2018-10-19T06:15:01.988Z,8.16
2018-10-19T06:20:01.284Z,8.29
2018-10-19T06:25:01.859Z,8.23
2018-10-19T06:30:01.126Z,8.16
2018-10-19T06:35:01.417Z,8.35
2018-10-19T06:40:01.832Z,8.23
2018-10-19T06:45:01.108Z,8.42
2018-10-19T06:50:01.438Z,8.38
2018-10-19T06:55:01.905Z,8.42
2018-10-19T07:00:01.122Z,8.44
2018-10-19T07:05:01.399Z,8.47
2018-10-19T07:10:01.768Z,8.51
2018-10-19T07:15:02.004Z,8.53
2018-10-19T07:20:01.285Z,8.6
2018-10-19T07:25:01.767Z,8.67
2018-10-19T07:30:02.058Z,8.76
2018-10-19T07:35:01.376Z,8.88
2018-10-19T07:40:01.804Z,8.97
2018-10-19T07:45:02.081Z,9.02
2018-10-19T07:50:01.361Z,9.14
2018-10-19T07:55:01.787Z,9.23
2018-10-19T08:00:02.075Z,9.18
2018-10-19T08:05:01.479Z,9.32
2018-10-19T08:10:01.985Z,9.35
2018-10-19T08:15:01.218Z,9.59
2018-10-19T08:20:01.504Z,9.54
2018-10-19T08:25:01.959Z,9.76
2018-10-19T08:30:01.203Z,9.9
2018-10-19T08:35:01.536Z,10.15
2018-10-19T08:40:01.094Z,10.31
2018-10-19T08:45:01.444Z,10.28
2018-10-19T08:50:01.792Z,10.48
2018-10-19T08:55:01.117Z,10.45
2018-10-19T09:00:01.659Z,10.56
2018-10-19T09:05:01.240Z,10.87
2018-10-19T09:10:01.725Z,10.95
2018-10-19T09:15:02.094Z,11.15
2018-10-19T09:20:01.493Z,11.33
2018-10-19T09:25:01.794Z,11.33
2018-10-19T09:30:02.023Z,11.45
2018-10-19T09:35:01.310Z,11.36
2018-10-19T09:40:01.813Z,11.7
2018-10-19T09:45:01.240Z,11.83
2018-10-19T09:50:01.799Z,11.84
2018-10-19T09:55:02.093Z,12.02
2018-10-19T10:00:01.678Z,12.22
2018-10-19T10:05:02.018Z,12.35
2018-10-19T10:10:01.348Z,12.46
2018-10-19T10:15:01.687Z,12.49
2018-10-19T10:20:01.467Z,12.7
2018-10-19T10:25:01.726Z,12.65
2018-10-19T10:30:02.059Z,12.79
2018-10-19T10:35:01.308Z,12.84
2018-10-19T10:40:01.569Z,12.81
2018-10-19T10:45:02.046Z,12.88
2018-10-19T10:50:01.285Z,12.89
2018-10-19T10:55:01.577Z,12.99
2018-10-19T11:00:01.996Z,13.14
2018-10-19T11:05:01.251Z,13.21
2018-10-19T11:10:01.576Z,13.14
2018-10-19T11:15:02.023Z,13.2
2018-10-19T11:20:01.357Z,13.34
2018-10-19T11:25:01.645Z,13.63
2018-10-19T11:30:01.100Z,13.89
2018-10-19T11:35:01.338Z,14.14
2018-10-19T11:40:01.643Z,14.08
2018-10-19T11:45:01.099Z,14.08
2018-10-19T11:50:01.338Z,14.26
2018-10-19T11:55:01.620Z,14.19
2018-10-19T12:00:01.171Z,14.33
2018-10-19T12:05:01.410Z,14.37
2018-10-19T12:10:01.630Z,14.53
2018-10-19T12:15:01.210Z,14.68
2018-10-19T12:20:01.603Z,14.79
2018-10-19T12:25:01.879Z,14.92
2018-10-19T12:30:01.410Z,15
2018-10-19T12:35:01.667Z,14.87
2018-10-19T12:40:01.957Z,14.91
2018-10-19T12:45:01.230Z,14.98
2018-10-19T12:50:01.672Z,15.04
2018-10-19T12:55:01.928Z,14.92
2018-10-19T13:00:01.438Z,14.98
2018-10-19T13:05:01.682Z,14.97
2018-10-19T13:10:01.922Z,14.99
2018-10-19T13:15:01.257Z,14.78
2018-10-19T13:20:01.587Z,14.7
2018-10-19T13:25:01.810Z,14.81
2018-10-19T13:30:02.060Z,14.73
2018-10-19T13:35:01.626Z,14.74
2018-10-19T13:40:01.855Z,14.77
2018-10-19T13:45:01.125Z,14.83
2018-10-19T13:50:01.570Z,14.88
2018-10-19T13:55:01.788Z,14.87
2018-10-19T14:00:02.039Z,14.85
2018-10-19T14:05:01.401Z,14.87
2018-10-19T14:10:01.967Z,14.92
2018-10-19T14:15:01.248Z,14.84
2018-10-19T14:20:01.645Z,14.84
2018-10-19T14:25:01.982Z,14.84
2018-10-19T14:30:01.390Z,14.87
2018-10-19T14:35:01.868Z,14.93
2018-10-19T14:40:01.354Z,14.97
2018-10-19T14:45:01.829Z,15.06
2018-10-19T14:50:01.366Z,15.09
2018-10-19T14:55:01.662Z,15.11
2018-10-19T15:00:01.947Z,15.1
2018-10-19T15:05:01.521Z,15.07
2018-10-19T15:10:02.192Z,15.03
2018-10-19T15:15:02.076Z,14.97
2018-10-19T15:20:01.644Z,14.88
2018-10-19T15:25:01.993Z,14.8
2018-10-19T15:30:01.595Z,14.74
2018-10-19T15:35:01.249Z,14.67
2018-10-19T15:40:01.548Z,14.59
2018-10-19T15:45:01.962Z,14.49
2018-10-19T15:50:01.706Z,14.37
2018-10-19T15:55:01.171Z,14.23
2018-10-19T16:00:01.754Z,14.12
2018-10-19T16:05:01.539Z,13.99
2018-10-19T16:10:01.778Z,13.74
2018-10-19T16:15:01.233Z,13.49
2018-10-19T16:20:01.939Z,13.23
2018-10-19T16:25:01.296Z,12.95
2018-10-19T16:30:01.582Z,12.66
2018-10-19T16:35:02.157Z,12.44
2018-10-19T16:40:01.619Z,12.23
2018-10-19T16:45:01.933Z,12.05
2018-10-19T16:50:01.588Z,11.92
2018-10-19T16:55:01.946Z,11.79
2018-10-19T17:00:01.378Z,11.64
2018-10-19T17:05:01.128Z,11.55
2018-10-19T17:10:01.526Z,11.45
2018-10-19T17:15:01.942Z,11.3
2018-10-19T17:20:01.730Z,11.2
2018-10-19T17:25:01.264Z,11.11
2018-10-19T17:30:01.749Z,11.07
2018-10-19T17:35:01.527Z,11.11
2018-10-19T17:40:02.170Z,11.03
2018-10-19T17:45:01.701Z,10.93
2018-10-19T17:50:01.314Z,10.84
2018-10-19T17:55:01.678Z,10.74
2018-10-19T18:00:02.055Z,10.69
2018-10-19T18:05:01.718Z,10.53
2018-10-19T18:10:01.404Z,10.51
2018-10-19T18:15:01.844Z,10.39
2018-10-19T18:20:01.488Z,10.36
2018-10-19T18:25:01.883Z,10.27
2018-10-19T18:30:01.256Z,10.23
2018-10-19T18:35:01.741Z,10.19
2018-10-19T18:40:01.462Z,10.15
2018-10-19T18:45:01.748Z,10.13
2018-10-19T18:50:02.127Z,10.1
2018-10-19T18:55:01.565Z,10.08
2018-10-19T19:00:02.032Z,10.08
2018-10-19T19:05:01.412Z,10.04
2018-10-19T19:10:01.801Z,10
2018-10-19T19:15:01.081Z,9.96
2018-10-19T19:20:01.500Z,10.21
2018-10-19T19:25:01.905Z,10.08
2018-10-19T19:30:01.134Z,10.03
2018-10-19T19:35:01.481Z,9.97
2018-10-19T19:40:01.987Z,9.95
2018-10-19T19:45:01.361Z,9.91
2018-10-19T19:50:01.731Z,9.96
2018-10-19T19:55:01.231Z,9.94
2018-10-19T20:00:01.485Z,9.92
2018-10-19T20:05:01.775Z,9.93
2018-10-19T20:10:01.269Z,9.83
2018-10-19T20:15:02.030Z,9.75
2018-10-19T20:20:01.527Z,9.7
2018-10-19T20:25:01.090Z,9.68
2018-10-19T20:30:01.352Z,9.63
2018-10-19T20:35:01.849Z,9.77
2018-10-19T20:40:01.484Z,10.03
2018-10-19T20:45:01.736Z,9.69
2018-10-19T20:50:02.026Z,9.6
2018-10-19T20:55:01.564Z,9.78
2018-10-19T21:00:01.968Z,9.49
2018-10-19T21:05:01.485Z,9.56
2018-10-19T21:10:02.059Z,9.63
2018-10-19T21:15:01.293Z,9.55
2018-10-19T21:20:01.757Z,9.49
2018-10-19T21:25:01.303Z,9.51
2018-10-19T21:30:01.790Z,9.53
2018-10-19T21:35:01.513Z,9.54
2018-10-19T21:40:01.872Z,9.84
2018-10-19T21:45:01.479Z,9.75
2018-10-19T21:50:01.900Z,9.71
2018-10-19T21:55:01.369Z,9.96
2018-10-19T22:00:01.640Z,9.77
2018-10-19T22:05:02.114Z,10
2018-10-19T22:10:01.618Z,9.84
2018-10-19T22:15:01.853Z,9.69
2018-10-19T22:20:01.136Z,9.5
2018-10-19T22:25:01.787Z,9.56
2018-10-19T22:30:01.171Z,9.48
2018-10-19T22:35:01.458Z,9.2
2018-10-19T22:40:01.860Z,9.08
2018-10-19T22:45:01.147Z,8.87
2018-10-19T22:50:01.392Z,8.82
2018-10-19T22:55:01.723Z,8.83
2018-10-19T23:00:01.089Z,8.73
2018-10-19T23:05:01.416Z,8.76
2018-10-19T23:10:01.888Z,8.76
2018-10-19T23:15:01.251Z,8.73
2018-10-19T23:20:01.493Z,8.55
2018-10-19T23:25:01.822Z,8.51
2018-10-19T23:30:01.228Z,8.66
2018-10-19T23:35:01.514Z,8.71
2018-10-19T23:40:01.917Z,8.72
2018-10-19T23:45:01.201Z,8.38
2018-10-19T23:50:01.517Z,8.49
2018-10-19T23:55:01.818Z,8.47
